KUOX/UOX METAR and TAF weather

Enter ICAO airport designator
Station Type Date Time Source
KUOX METAR 2020/01/22 18:15 UTC NOAA

KUOX 221815Z AUTO 15009G15KT 10SM CLR 05/M10 A3030 RMK AO2


Station Type Date Time Source
KUOX Decoded METAR 2020/01/22 18:15 UTC NOAA

Oxford, University-Oxford Airport, MS, United States (KUOX) 34-23-04N 089-32-08W
Jan 22, 2020 - 01:15 PM EST / 2020.01.22 1815 UTC
Wind: from the SSE (150 degrees) at 10 MPH (9 KT) gusting to 17 MPH (15 KT):0
Visibility: 10 mile(s):0
Sky conditions: clear
Temperature: 41 F (5 C)
Dew Point: 14 F (-10 C)
Relative Humidity: 32%
Pressure (altimeter): 30.3 in. Hg (1026 hPa)
ob: KUOX 221815Z AUTO 15009G15KT 10SM CLR 05/M10 A3030 RMK AO2
cycle: 18

Station Type Date Time Source
KUOX TAF UTC NOAA

Error!

Example: see airport list